Time;durP1;ratioP1;P1;durP2;ratioP2;P2;SDS_P1;SDS_P2;PMS_P1;PMS_P2;Temp;Humidity;BMP_temperature;BMP_pressure;BME280_temperature;BME280_humidity;BME280_pressure;Samples;Min_cycle;Max_cycle;Signal;HPM_P1;HPM_P2
2023/08/22 00:01:03;;;;;;;18.92;7.32;;;;;;;16.84;100.00;101906.91;5010336;28;20036;-87
2023/08/22 00:03:29;;;;;;;16.17;7.30;;;;;;;16.88;100.00;101912.97;5031827;28;20476;-87
2023/08/22 00:05:55;;;;;;;19.02;7.45;;;;;;;16.88;100.00;101913.84;5031612;28;20033;-88
2023/08/22 00:08:21;;;;;;;17.38;7.25;;;;;;;16.87;100.00;101914.84;5011945;28;20033;-87
2023/08/22 00:10:46;;;;;;;19.85;7.20;;;;;;;16.86;100.00;101921.22;5012274;28;20064;-88
2023/08/22 00:13:11;;;;;;;20.20;7.22;;;;;;;16.88;100.00;101921.13;5022109;28;20021;-87
2023/08/22 00:15:37;;;;;;;19.23;7.88;;;;;;;16.88;100.00;101916.56;5028749;28;20549;-88
2023/08/22 00:18:02;;;;;;;20.55;8.13;;;;;;;16.89;100.00;101912.00;5011786;28;20425;-88
2023/08/22 00:20:28;;;;;;;18.35;7.38;;;;;;;16.89;100.00;101909.28;5012917;28;20049;-87
2023/08/22 00:22:53;;;;;;;18.98;7.60;;;;;;;16.90;100.00;101906.44;5013828;28;20150;-85
2023/08/22 00:25:19;;;;;;;19.83;7.18;;;;;;;16.89;100.00;101906.56;5012763;28;20445;-85
2023/08/22 00:27:44;;;;;;;17.35;6.97;;;;;;;16.86;100.00;101912.22;5012119;28;20029;-85
2023/08/22 00:30:09;;;;;;;17.55;6.65;;;;;;;16.85;100.00;101918.63;5034019;28;20513;-85
2023/08/22 00:32:35;;;;;;;17.00;7.03;;;;;;;16.83;100.00;101915.19;5029397;28;20033;-85
2023/08/22 00:35:01;;;;;;;17.48;7.13;;;;;;;16.79;100.00;101909.13;5029323;28;20392;-85
2023/08/22 00:37:27;;;;;;;18.13;7.50;;;;;;;16.80;100.00;101907.31;5012752;28;20036;-85
2023/08/22 00:39:52;;;;;;;18.95;7.55;;;;;;;16.81;100.00;101911.72;5009573;28;20045;-85
2023/08/22 00:42:18;;;;;;;18.40;7.07;;;;;;;16.80;100.00;101904.59;5006985;28;20022;-85
2023/08/22 00:44:44;;;;;;;18.88;7.47;;;;;;;16.78;100.00;101897.41;5011369;28;20124;-85
2023/08/22 00:47:09;;;;;;;17.48;6.80;;;;;;;16.77;100.00;101906.53;5027300;28;20030;-86
2023/08/22 00:49:35;;;;;;;17.38;7.13;;;;;;;16.75;100.00;101897.69;5009015;28;20138;-85
2023/08/22 00:52:03;;;;;;;18.73;6.95;;;;;;;16.76;100.00;101901.25;5012110;28;20037;-85
2023/08/22 00:54:30;;;;;;;22.58;6.90;;;;;;;16.74;100.00;101895.09;5034003;28;20116;-85
2023/08/22 00:56:56;;;;;;;16.55;6.32;;;;;;;16.73;100.00;101883.34;5040341;28;20429;-85
2023/08/22 00:59:26;;;;;;;17.30;6.50;;;;;;;16.72;100.00;101897.06;5014997;28;20060;-85
2023/08/22 01:01:51;;;;;;;19.30;6.90;;;;;;;16.71;100.00;101889.94;5020984;28;20399;-85
2023/08/22 01:04:17;;;;;;;17.15;6.60;;;;;;;16.71;100.00;101890.78;5029333;28;20040;-85
2023/08/22 01:07:00;;;;;;;17.25;7.18;;;;;;;16.69;100.00;101878.31;5051721;28;20120;-84
2023/08/22 01:09:32;;;;;;;19.73;7.18;;;;;;;16.67;100.00;101883.88;5048731;28;20039;-85
2023/08/22 01:12:22;;;;;;;19.05;7.32;;;;;;;16.65;100.00;101885.84;5023419;28;20484;-85
2023/08/22 01:14:55;;;;;;;19.90;7.18;;;;;;;16.62;100.00;101886.13;5032877;28;20054;-85
2023/08/22 01:17:21;;;;;;;19.77;8.07;;;;;;;16.58;100.00;101890.06;5050695;28;20025;-85
2023/08/22 01:19:47;;;;;;;21.55;7.60;;;;;;;16.55;100.00;101895.75;5035328;28;20079;-85
2023/08/22 01:22:13;;;;;;;18.65;7.25;;;;;;;16.50;100.00;101900.69;5044092;28;20102;-85
2023/08/22 01:24:38;;;;;;;17.85;7.50;;;;;;;16.46;100.00;101891.94;5035184;28;20078;-85
2023/08/22 01:27:07;;;;;;;19.17;7.95;;;;;;;16.45;100.00;101892.06;5035741;28;20116;-85
2023/08/22 01:29:44;;;;;;;21.98;7.25;;;;;;;16.43;100.00;101887.63;5051346;28;20071;-85
2023/08/22 01:32:13;;;;;;;19.40;7.88;;;;;;;16.44;100.00;101883.03;5048213;28;20536;-84
2023/08/22 01:34:40;;;;;;;17.52;7.45;;;;;;;16.46;100.00;101880.19;5042968;28;20063;-84
2023/08/22 01:37:09;;;;;;;15.70;6.65;;;;;;;16.43;100.00;101871.34;5028174;28;20048;-85
2023/08/22 01:39:37;;;;;;;19.50;7.83;;;;;;;16.43;100.00;101884.06;5034000;28;20021;-85
2023/08/22 01:42:05;;;;;;;19.35;8.00;;;;;;;16.43;100.00;101870.50;5041873;28;20119;-85
2023/08/22 01:44:30;;;;;;;20.30;8.30;;;;;;;16.43;100.00;101875.91;5024070;28;20033;-85
2023/08/22 01:46:55;;;;;;;19.58;7.88;;;;;;;16.43;100.00;101871.34;5045283;28;20382;-85
2023/08/22 01:49:21;;;;;;;18.38;7.05;;;;;;;16.41;100.00;101876.03;5027217;28;20025;-85
2023/08/22 01:51:46;;;;;;;18.23;7.75;;;;;;;16.42;100.00;101864.19;5042732;28;20469;-84
2023/08/22 01:54:12;;;;;;;17.55;6.95;;;;;;;16.47;100.00;101871.09;5031435;28;20025;-84
2023/08/22 01:56:37;;;;;;;16.35;6.90;;;;;;;16.47;100.00;101874.69;5023237;28;20025;-84
2023/08/22 01:59:03;;;;;;;19.23;7.63;;;;;;;16.46;100.00;101872.94;5040141;28;20033;-85
2023/08/22 02:01:28;;;;;;;18.92;6.95;;;;;;;16.43;100.00;101871.34;5043104;28;20061;-84
2023/08/22 02:03:53;;;;;;;20.40;7.55;;;;;;;16.44;100.00;101869.47;5043970;28;20061;-85
2023/08/22 02:06:18;;;;;;;17.60;7.32;;;;;;;16.42;100.00;101864.19;5019192;28;20126;-84
2023/08/22 02:08:44;;;;;;;18.95;7.38;;;;;;;16.42;100.00;101864.19;5026136;28;20033;-85
2023/08/22 02:11:09;;;;;;;18.50;7.68;;;;;;;16.42;100.00;101864.19;5033061;28;20032;-84
2023/08/22 02:13:34;;;;;;;17.05;6.65;;;;;;;16.42;100.00;101860.63;5026324;28;20037;-85
2023/08/22 02:16:00;;;;;;;17.25;7.57;;;;;;;16.42;100.00;101858.75;5045048;28;20033;-85
2023/08/22 02:18:26;;;;;;;18.00;6.68;;;;;;;16.42;100.00;101863.31;5030411;28;20032;-85
2023/08/22 02:20:55;;;;;;;19.40;6.68;;;;;;;16.40;100.00;101858.03;5028329;28;20130;-85
2023/08/22 02:23:20;;;;;;;17.33;7.00;;;;;;;16.42;100.00;101852.47;5045415;28;20068;-85
2023/08/22 02:25:48;;;;;;;16.80;6.72;;;;;;;16.42;100.00;101857.91;5045462;28;20116;-86
2023/08/22 02:28:14;;;;;;;19.63;7.18;;;;;;;16.42;100.00;101847.06;5049775;28;20121;-85
2023/08/22 02:30:39;;;;;;;16.75;6.28;;;;;;;16.42;100.00;101849.75;5031196;28;20491;-85
2023/08/22 02:33:05;;;;;;;17.88;6.40;;;;;;;16.39;100.00;101844.59;5026250;28;20401;-85
2023/08/22 02:35:31;;;;;;;17.13;7.18;;;;;;;16.37;100.00;101858.28;5025397;28;20056;-85
2023/08/22 02:37:56;;;;;;;18.85;6.82;;;;;;;16.34;100.00;101844.97;5038207;28;20037;-85
2023/08/22 02:40:21;;;;;;;18.40;6.35;;;;;;;16.32;100.00;101846.94;5031453;28;20037;-85
2023/08/22 02:42:47;;;;;;;19.38;7.72;;;;;;;16.29;100.00;101841.75;5027666;28;20049;-85
2023/08/22 02:45:12;;;;;;;16.83;6.72;;;;;;;16.28;100.00;101855.44;5026217;28;20116;-85
2023/08/22 02:47:38;;;;;;;18.50;7.28;;;;;;;16.27;100.00;101849.19;5022586;28;20029;-85
2023/08/22 02:50:04;;;;;;;18.08;6.78;;;;;;;16.27;100.00;101849.19;5020732;28;20017;-85
2023/08/22 02:52:30;;;;;;;18.80;7.10;;;;;;;16.27;100.00;101849.19;5027027;28;20041;-85
2023/08/22 02:54:56;;;;;;;18.42;6.43;;;;;;;16.27;100.00;101860.03;5037988;28;20033;-85
2023/08/22 02:57:21;;;;;;;20.25;6.95;;;;;;;16.27;100.00;101845.56;5045346;28;20453;-86
2023/08/22 02:59:46;;;;;;;18.33;6.30;;;;;;;16.24;100.00;101852.13;5018125;28;20053;-86
2023/08/22 03:02:11;;;;;;;18.52;7.57;;;;;;;16.24;100.00;101854.84;5036437;28;20143;-85
2023/08/22 03:04:37;;;;;;;17.35;6.97;;;;;;;16.21;100.00;101852.41;5038883;28;20025;-85
2023/08/22 03:07:06;;;;;;;16.42;6.95;;;;;;;16.19;100.00;101846.22;5024428;28;20026;-85
2023/08/22 03:09:32;;;;;;;20.05;7.60;;;;;;;16.16;100.00;101858.16;5048570;28;20048;-86
2023/08/22 03:11:57;;;;;;;18.90;7.50;;;;;;;16.12;100.00;101861.25;5044359;28;20021;-85
2023/08/22 03:14:24;;;;;;;16.27;7.25;;;;;;;16.09;100.00;101856.94;5029850;28;20031;-85
2023/08/22 03:16:49;;;;;;;18.52;7.30;;;;;;;16.08;100.00;101856.09;5047862;28;20028;-85
2023/08/22 03:19:15;;;;;;;19.65;8.45;;;;;;;16.06;100.00;101854.47;5045209;28;20047;-85
2023/08/22 03:21:40;;;;;;;18.00;7.63;;;;;;;16.02;100.00;101862.00;5026383;28;20025;-86
2023/08/22 03:24:06;;;;;;;18.80;8.07;;;;;;;16.03;100.00;101861.03;5026378;28;20023;-84
2023/08/22 03:26:31;;;;;;;19.60;7.65;;;;;;;16.02;100.00;101853.88;5046424;28;20048;-85
2023/08/22 03:28:56;;;;;;;19.60;7.88;;;;;;;16.01;100.00;101845.88;5028962;28;20025;-84
2023/08/22 03:31:28;;;;;;;19.65;8.13;;;;;;;15.99;100.00;101846.00;5043182;28;20047;-84
2023/08/22 03:33:54;;;;;;;19.05;7.90;;;;;;;15.98;100.00;101854.25;5031449;28;20496;-84
2023/08/22 03:36:20;;;;;;;19.85;8.63;;;;;;;15.96;100.00;101856.19;5046143;28;20078;-84
2023/08/22 03:38:48;;;;;;;18.73;8.45;;;;;;;15.94;100.00;101856.31;5047706;28;20037;-84
2023/08/22 03:41:13;;;;;;;19.88;8.73;;;;;;;15.92;100.00;101855.59;5027118;28;20085;-84
2023/08/22 03:43:38;;;;;;;18.88;8.18;;;;;;;15.90;100.00;101854.84;5043976;28;20111;-84
2023/08/22 03:46:04;;;;;;;20.42;8.60;;;;;;;15.88;100.00;101854.97;5042617;28;20036;-84
2023/08/22 03:48:29;;;;;;;19.48;8.75;;;;;;;15.85;100.00;101857.06;5031768;28;20028;-84
2023/08/22 03:50:55;;;;;;;18.83;8.07;;;;;;;15.83;100.00;101857.19;5046054;28;20029;-84
2023/08/22 03:53:22;;;;;;;18.60;7.97;;;;;;;15.81;100.00;101853.75;5026266;28;20029;-83
2023/08/22 03:55:47;;;;;;;20.05;8.52;;;;;;;15.77;100.00;101846.81;5025911;28;20040;-84
2023/08/22 03:58:13;;;;;;;20.67;8.35;;;;;;;15.72;100.00;101841.78;5030228;28;20032;-84
2023/08/22 04:00:38;;;;;;;18.75;8.32;;;;;;;15.67;100.00;101846.69;5048344;28;20376;-84
2023/08/22 04:03:04;;;;;;;23.10;8.85;;;;;;;15.63;100.00;101842.47;5030786;28;20466;-84
2023/08/22 04:05:30;;;;;;;18.63;8.25;;;;;;;15.59;100.00;101846.41;5036565;28;20033;-84
2023/08/22 04:07:56;;;;;;;18.90;8.15;;;;;;;15.58;100.00;101851.94;5024609;28;20481;-84
2023/08/22 04:10:21;;;;;;;20.38;8.75;;;;;;;15.54;100.00;101845.91;5046795;28;20017;-84
2023/08/22 04:12:46;;;;;;;19.40;8.20;;;;;;;15.50;100.00;101844.44;5032147;28;20029;-83
2023/08/22 04:15:12;;;;;;;19.20;8.98;;;;;;;15.45;100.00;101847.50;5022975;28;20037;-84
2023/08/22 04:17:41;;;;;;;20.33;8.40;;;;;;;15.43;100.00;101837.75;5047873;28;20151;-84
2023/08/22 04:20:08;;;;;;;18.92;8.25;;;;;;;15.40;100.00;101843.44;5024679;28;20144;-84
2023/08/22 04:22:34;;;;;;;19.83;8.30;;;;;;;15.34;100.00;101842.94;5022022;28;20022;-84
2023/08/22 04:24:59;;;;;;;17.50;8.00;;;;;;;15.33;100.00;101838.50;5021566;28;20033;-84
2023/08/22 04:27:24;;;;;;;19.92;9.20;;;;;;;15.33;100.00;101838.50;5050662;28;20551;-84
2023/08/22 04:29:50;;;;;;;21.02;9.38;;;;;;;15.32;100.00;101835.91;5045714;28;20223;-84
2023/08/22 04:32:15;;;;;;;21.33;9.40;;;;;;;15.32;100.00;101831.34;5031165;28;20025;-84
2023/08/22 04:34:40;;;;;;;22.48;9.30;;;;;;;15.33;100.00;101841.19;5032799;28;20033;-84
2023/08/22 04:37:08;;;;;;;21.55;9.27;;;;;;;15.33;100.00;101830.38;5045299;28;20021;-85
2023/08/22 04:39:34;;;;;;;19.70;9.15;;;;;;;15.36;100.00;101838.25;5047529;28;20163;-85
2023/08/22 04:41:59;;;;;;;23.98;10.43;;;;;;;15.35;100.00;101833.81;5053352;28;20108;-85
2023/08/22 04:44:24;;;;;;;20.48;10.88;;;;;;;15.33;100.00;101841.19;5048775;28;20029;-85
2023/08/22 04:46:50;;;;;;;21.02;10.35;;;;;;;15.31;100.00;101845.84;5048314;28;20039;-85
2023/08/22 04:49:15;;;;;;;25.83;10.90;;;;;;;15.31;100.00;101839.59;5042700;28;20580;-85
2023/08/22 04:51:40;;;;;;;23.27;10.75;;;;;;;15.30;100.00;101840.56;5031586;28;20372;-85
2023/08/22 04:54:06;;;;;;;21.08;10.23;;;;;;;15.29;100.00;101841.56;5042699;28;20422;-85
2023/08/22 04:56:31;;;;;;;19.90;10.48;;;;;;;15.26;100.00;101842.66;5032680;28;20558;-84
2023/08/22 04:58:56;;;;;;;22.63;10.57;;;;;;;15.23;100.00;101842.91;5033555;28;20029;-85
2023/08/22 05:01:22;;;;;;;23.00;11.27;;;;;;;15.23;100.00;101844.72;5029596;28;20025;-85
2023/08/22 05:03:47;;;;;;;23.90;11.77;;;;;;;15.23;100.00;101842.91;5041162;28;20024;-85
2023/08/22 05:06:12;;;;;;;23.77;11.60;;;;;;;15.22;100.00;101841.16;5049420;28;20043;-85
2023/08/22 05:08:38;;;;;;;22.58;11.27;;;;;;;15.22;100.00;101853.84;5029017;28;20597;-84
2023/08/22 05:11:03;;;;;;;23.48;11.45;;;;;;;15.22;100.00;101846.56;5051925;28;20388;-85
2023/08/22 05:13:28;;;;;;;22.98;11.85;;;;;;;15.24;100.00;101839.19;5029746;28;20126;-85
2023/08/22 05:15:54;;;;;;;20.70;11.35;;;;;;;15.27;100.00;101849.81;5047416;28;20499;-85
2023/08/22 05:18:19;;;;;;;23.30;12.02;;;;;;;15.27;100.00;101849.81;5050209;28;20405;-85
2023/08/22 05:20:44;;;;;;;22.60;11.68;;;;;;;15.31;100.00;101851.28;5026281;28;20470;-85
2023/08/22 05:23:10;;;;;;;23.60;11.27;;;;;;;15.35;100.00;101844.63;5036644;28;20116;-84
2023/08/22 05:25:35;;;;;;;22.30;10.77;;;;;;;15.38;100.00;101836.28;5034256;28;20048;-85
2023/08/22 05:28:00;;;;;;;24.35;13.27;;;;;;;15.44;100.00;101839.50;5046415;28;20485;-85
2023/08/22 05:30:26;;;;;;;23.65;12.48;;;;;;;15.49;100.00;101846.28;5029693;28;20032;-85
2023/08/22 05:32:51;;;;;;;22.52;12.63;;;;;;;15.55;100.00;101842.25;5048374;28;20485;-85
2023/08/22 05:35:17;;;;;;;27.08;14.70;;;;;;;15.60;100.00;101842.72;5046685;28;20087;-85
2023/08/22 05:37:42;;;;;;;25.25;13.90;;;;;;;15.63;100.00;101842.47;5032043;28;20025;-85
2023/08/22 05:40:08;;;;;;;24.30;13.40;;;;;;;15.67;100.00;101843.97;5048667;28;20029;-85
2023/08/22 05:42:33;;;;;;;24.55;13.07;;;;;;;15.72;100.00;101839.06;5048514;28;20028;-84
2023/08/22 05:44:59;;;;;;;24.95;13.43;;;;;;;15.78;100.00;101836.81;5041601;28;20036;-89
2023/08/22 05:47:24;;;;;;;24.30;14.18;;;;;;;15.85;100.00;101838.09;5045635;28;20471;-89
2023/08/22 05:49:50;;;;;;;25.35;13.10;;;;;;;15.92;100.00;101841.19;5036533;28;20113;-89
2023/08/22 05:52:15;;;;;;;27.98;13.38;;;;;;;15.98;100.00;101851.53;5027486;28;20044;-88
2023/08/22 05:54:41;;;;;;;25.55;13.73;;;;;;;16.02;100.00;101853.88;5021676;28;20033;-88
2023/08/22 05:57:06;;;;;;;25.35;13.23;;;;;;;16.07;100.00;101848.94;5037212;28;20029;-89
2023/08/22 05:59:32;;;;;;;23.70;13.90;;;;;;;16.15;100.00;101850.16;5042324;28;20110;-89
2023/08/22 06:01:57;;;;;;;23.45;13.10;;;;;;;16.19;100.00;101844.38;5048029;28;20078;-88
2023/08/22 06:04:23;;;;;;;24.88;13.50;;;;;;;16.25;100.00;101848.41;5024653;28;20031;-88
2023/08/22 06:06:49;;;;;;;24.30;13.68;;;;;;;16.30;100.00;101857.06;5029107;28;20552;-89
2023/08/22 06:09:14;;;;;;;26.98;13.57;;;;;;;16.35;100.00;101853.97;5050926;28;20115;-88
2023/08/22 06:11:39;;;;;;;25.90;14.52;;;;;;;16.40;100.00;101855.31;5046035;28;20132;-89
2023/08/22 06:14:05;;;;;;;25.35;13.68;;;;;;;16.49;100.00;101855.56;5041661;28;20037;-89
2023/08/22 06:16:31;;;;;;;28.52;14.13;;;;;;;16.56;100.00;101859.47;5050757;28;20025;-90
2023/08/22 06:18:56;;;;;;;26.85;13.77;;;;;;;16.64;100.00;101856.97;5043137;28;20388;-90
2023/08/22 06:21:22;;;;;;;24.25;13.35;;;;;;;16.69;100.00;101852.06;5037004;28;20045;-80
2023/08/22 06:23:47;;;;;;;23.98;11.27;;;;;;;16.76;100.00;101861.41;5042930;28;20029;-83
2023/08/22 06:26:13;;;;;;;23.50;12.93;;;;;;;16.83;100.00;101852.75;5032347;28;20024;-83
2023/08/22 06:28:39;;;;;;;24.30;11.98;;;;;;;16.89;100.00;101865.81;5048159;28;20032;-83
2023/08/22 06:31:05;;;;;;;22.42;10.75;;;;;;;16.94;100.00;101860.84;5043990;28;20021;-83
2023/08/22 06:33:31;;;;;;;14.85;5.70;;;;;;;16.95;100.00;101854.44;5048101;28;20107;-83
2023/08/22 06:35:56;;;;;;;23.05;11.05;;;;;;;17.04;100.00;101861.84;5046529;28;20112;-83
2023/08/22 06:38:21;;;;;;;24.48;11.02;;;;;;;17.11;100.00;101868.44;5049853;28;20028;-83
2023/08/22 06:40:48;;;;;;;23.02;11.35;;;;;;;17.19;100.00;101866.94;5051142;28;20035;-83
2023/08/22 06:43:14;;;;;;;24.45;11.57;;;;;;;17.23;100.00;101874.72;5048954;28;20025;-83
2023/08/22 06:45:39;;;;;;;20.73;7.20;;;;;;;17.24;100.00;101875.56;5039353;28;20052;-83
2023/08/22 06:48:08;;;;;;;23.08;10.52;;;;;;;17.33;100.00;101880.19;5028521;28;20037;-82
2023/08/22 06:50:33;;;;;;;21.15;9.20;;;;;;;17.38;100.00;101879.78;5020060;28;20032;-82
2023/08/22 06:52:59;;;;;;;18.20;7.07;;;;;;;17.41;100.00;101887.69;5024805;28;20484;-83
2023/08/22 06:55:25;;;;;;;17.50;7.25;;;;;;;17.45;100.00;101890.03;5044074;28;20910;-84
2023/08/22 06:57:50;;;;;;;14.60;6.20;;;;;;;17.52;100.00;101890.34;5027822;28;20051;-84
2023/08/22 07:00:16;;;;;;;20.88;9.75;;;;;;;17.58;100.00;101895.25;5025041;28;20431;-84
2023/08/22 07:02:44;;;;;;;21.67;9.25;;;;;;;17.67;100.00;101899.00;5042437;28;20021;-83
2023/08/22 07:05:11;;;;;;;19.52;7.55;;;;;;;17.70;100.00;101895.19;5048751;28;20045;-83
2023/08/22 07:07:37;;;;;;;13.95;5.13;;;;;;;17.75;100.00;101896.50;5047953;28;20132;-83
2023/08/22 07:10:05;;;;;;;17.55;6.90;;;;;;;17.85;100.00;101901.13;5050372;28;20071;-83
2023/08/22 07:12:31;;;;;;;20.70;8.60;;;;;;;17.90;100.00;101904.34;5048051;28;20029;-83
2023/08/22 07:14:56;;;;;;;16.30;5.20;;;;;;;17.90;100.00;101921.53;5029269;28;20541;-83
2023/08/22 07:17:21;;;;;;;17.48;5.95;;;;;;;17.98;100.00;101910.84;5050307;28;20040;-84
2023/08/22 07:19:47;;;;;;;16.23;5.47;;;;;;;18.06;100.00;101912.03;5046323;28;20057;-83
2023/08/22 07:22:12;;;;;;;11.60;4.20;;;;;;;18.13;100.00;101910.50;5047303;28;20107;-83
2023/08/22 07:24:37;;;;;;;14.05;4.32;;;;;;;18.20;100.00;101906.22;5044299;28;20039;-80
2023/08/22 07:27:03;;;;;;;21.77;6.82;;;;;;;18.30;100.00;101911.69;5046483;28;20391;-80
2023/08/22 07:29:28;;;;;;;14.25;4.43;;;;;;;18.39;100.00;101900.00;5045336;28;20030;-80
2023/08/22 07:31:58;;;;;;;18.33;7.68;;;;;;;18.56;100.00;101912.06;5051646;28;20385;-81
2023/08/22 07:34:24;;;;;;;14.00;4.82;;;;;;;18.64;100.00;101904.06;5049660;28;20028;-79
2023/08/22 07:36:52;;;;;;;14.38;6.07;;;;;;;18.73;100.00;101899.66;5055844;28;20488;-81
2023/08/22 07:39:18;;;;;;;14.45;5.68;;;;;;;18.86;100.00;101903.00;5046473;28;20029;-80
2023/08/22 07:41:44;;;;;;;21.23;8.40;;;;;;;19.03;100.00;101897.84;5040532;28;20128;-77
2023/08/22 07:44:09;;;;;;;22.92;8.05;;;;;;;19.12;100.00;101897.00;5028328;28;20028;-78
2023/08/22 07:46:34;;;;;;;19.85;8.45;;;;;;;19.24;99.86;101908.63;5044170;28;20037;-77
2023/08/22 07:49:00;;;;;;;23.05;9.10;;;;;;;19.33;99.10;101904.16;5027524;28;20035;-78
2023/08/22 07:51:25;;;;;;;21.75;8.95;;;;;;;19.39;97.45;101901.72;5045007;28;20024;-77
2023/08/22 07:53:50;;;;;;;22.90;9.98;;;;;;;19.46;95.84;101912.03;5046456;28;20025;-77
2023/08/22 07:56:16;;;;;;;25.00;10.02;;;;;;;19.52;97.42;101919.66;5031008;28;20558;-78
2023/08/22 07:58:41;;;;;;;21.80;8.27;;;;;;;19.59;98.42;101914.47;5047633;28;20431;-78
2023/08/22 08:01:07;;;;;;;21.80;9.85;;;;;;;19.62;98.10;101908.72;5035057;28;20025;-78
2023/08/22 08:03:33;;;;;;;21.85;9.05;;;;;;;19.68;96.33;101905.41;5029118;28;20035;-84
2023/08/22 08:05:58;;;;;;;23.25;9.60;;;;;;;19.74;95.99;101913.84;5026518;28;20087;-84
2023/08/22 08:08:24;;;;;;;22.83;8.85;;;;;;;19.81;94.50;101919.63;5040012;28;20055;-80
2023/08/22 08:10:50;;;;;;;20.95;9.13;;;;;;;19.90;96.59;101924.19;5042052;28;20026;-80
2023/08/22 08:13:15;;;;;;;23.83;9.02;;;;;;;19.98;94.06;101922.59;5046950;28;20346;-83
2023/08/22 08:15:41;;;;;;;21.42;8.73;;;;;;;20.05;94.87;101921.00;5025662;28;20028;-83
2023/08/22 08:18:07;;;;;;;22.88;8.25;;;;;;;20.14;95.42;101930.16;5043404;28;20433;-83
2023/08/22 08:20:32;;;;;;;21.83;8.98;;;;;;;20.21;95.85;101929.41;5035291;28;20071;-83
2023/08/22 08:22:59;;;;;;;22.27;8.05;;;;;;;20.27;93.20;101929.84;5038355;28;20052;-84
2023/08/22 08:25:24;;;;;;;23.17;7.97;;;;;;;20.31;94.04;101929.38;5041105;28;20110;-82
2023/08/22 08:27:49;;;;;;;19.80;6.97;;;;;;;20.37;92.19;101933.38;5042405;28;20056;-82
2023/08/22 08:30:15;;;;;;;23.33;7.65;;;;;;;20.40;91.90;101930.34;5041219;28;20033;-78
2023/08/22 08:32:40;;;;;;;21.65;7.70;;;;;;;20.46;93.86;101935.19;5024041;28;20076;-79
2023/08/22 08:35:09;;;;;;;19.33;7.30;;;;;;;20.50;91.42;101936.63;5045161;28;20037;-83
2023/08/22 08:37:35;;;;;;;19.70;6.65;;;;;;;20.58;91.83;101933.97;5044089;28;20742;-76
2023/08/22 08:40:00;;;;;;;18.48;6.85;;;;;;;20.62;89.98;101933.69;5028383;28;20462;-80
2023/08/22 08:42:26;;;;;;;15.63;6.63;;;;;;;20.68;91.19;101933.97;5043262;28;20467;-80
2023/08/22 08:44:51;;;;;;;20.35;7.28;;;;;;;20.76;91.37;101925.00;5028619;28;20104;-80
2023/08/22 08:47:20;;;;;;;19.83;6.93;;;;;;;20.78;90.46;101926.56;5036123;28;20029;-81
2023/08/22 08:49:46;;;;;;;17.73;6.30;;;;;;;20.83;89.05;101917.06;5021811;28;20376;-80
2023/08/22 08:52:12;;;;;;;20.60;6.97;;;;;;;20.89;92.88;101917.28;5036130;28;20024;-80
2023/08/22 08:54:38;;;;;;;18.85;6.07;;;;;;;20.92;89.25;101919.72;5018418;28;20493;-83
2023/08/22 08:57:04;;;;;;;16.15;5.55;;;;;;;20.98;90.62;101928.31;5046157;28;20361;-83
2023/08/22 08:59:29;;;;;;;17.90;6.00;;;;;;;21.00;89.69;101921.69;5022802;28;20021;-82
2023/08/22 09:01:56;;;;;;;20.25;6.30;;;;;;;21.03;89.69;101925.97;5039504;28;20115;-82
2023/08/22 09:04:22;;;;;;;24.08;7.68;;;;;;;21.03;88.79;101936.91;5021578;28;20498;-82
2023/08/22 09:06:48;;;;;;;22.42;7.78;;;;;;;21.02;88.30;101927.00;5043138;28;20033;-84
2023/08/22 09:09:15;;;;;;;20.75;8.80;;;;;;;20.99;89.08;101921.84;5027159;28;20542;-82
2023/08/22 09:11:45;;;;;;;22.23;9.25;;;;;;;20.93;89.04;101918.69;5027825;28;20151;-82
2023/08/22 09:14:11;;;;;;;22.55;10.38;;;;;;;20.87;87.26;101932.97;5041222;28;20037;-82
2023/08/22 09:16:39;;;;;;;20.15;8.95;;;;;;;20.83;88.56;101930.72;5047476;28;20033;-87
2023/08/22 09:19:07;;;;;;;29.65;11.63;;;;;;;20.80;89.77;101939.22;5039977;28;20665;-83
2023/08/22 09:21:32;;;;;;;28.88;10.68;;;;;;;20.79;90.88;101927.41;5043681;28;20029;-85
2023/08/22 09:24:08;;;;;;;23.27;10.30;;;;;;;20.83;88.78;101930.72;5050628;28;20021;-85
2023/08/22 09:26:34;;;;;;;25.70;9.73;;;;;;;20.82;90.54;101928.97;5025739;28;20021;-87
2023/08/22 09:29:07;;;;;;;22.25;10.50;;;;;;;20.82;91.23;101929.88;5025238;28;20048;-84
2023/08/22 09:31:35;;;;;;;22.83;10.10;;;;;;;20.85;90.89;101928.66;5027485;28;20378;-85
2023/08/22 09:34:07;;;;;;;23.83;11.13;;;;;;;20.87;91.00;101927.50;5032644;28;20029;-86
2023/08/22 09:36:33;;;;;;;20.92;9.95;;;;;;;20.94;90.46;101917.69;5027086;28;20536;-83
2023/08/22 09:38:58;;;;;;;22.15;9.80;;;;;;;21.07;92.66;101921.91;5026218;28;20104;-87
2023/08/22 09:41:26;;;;;;;22.48;9.88;;;;;;;21.16;90.12;101929.19;5028292;28;20025;-83
2023/08/22 09:43:54;;;;;;;23.15;8.32;;;;;;;21.20;89.31;101922.41;5031342;28;20107;-83
2023/08/22 09:46:21;;;;;;;22.17;8.57;;;;;;;21.28;86.79;101936.13;5029401;28;20179;-85
2023/08/22 09:48:48;;;;;;;21.17;8.27;;;;;;;21.35;84.61;101946.44;5031253;28;20356;-84
2023/08/22 09:51:19;;;;;;;23.13;7.97;;;;;;;21.35;83.31;101928.16;5039588;28;20020;-84
2023/08/22 09:53:53;;;;;;;20.33;8.30;;;;;;;21.36;83.06;101931.75;5030096;28;20029;-86
2023/08/22 09:56:20;;;;;;;17.85;6.50;;;;;;;21.33;83.57;101932.06;5043033;28;20028;-87
2023/08/22 09:58:46;;;;;;;17.27;6.30;;;;;;;21.35;81.79;101930.91;5024842;28;20025;-86
2023/08/22 10:01:14;;;;;;;24.30;5.88;;;;;;;21.37;80.70;101945.25;5033106;28;20052;-88
2023/08/22 10:03:40;;;;;;;17.52;5.22;;;;;;;21.42;78.13;101936.56;5044234;28;20025;-83
2023/08/22 10:06:13;;;;;;;18.45;5.10;;;;;;;21.45;78.71;101933.53;5046523;28;20029;-83
2023/08/22 10:08:43;;;;;;;17.73;5.07;;;;;;;21.53;79.58;101939.09;5044783;28;20029;-88
2023/08/22 10:11:11;;;;;;;16.88;5.28;;;;;;;21.61;79.45;101933.72;5028316;28;20037;-89
2023/08/22 10:13:38;;;;;;;14.85;5.32;;;;;;;21.69;79.85;101935.66;5029204;28;20021;-87
2023/08/22 10:16:04;;;;;;;18.65;5.53;;;;;;;21.79;78.48;101932.81;5043461;28;20021;-85
2023/08/22 10:18:29;;;;;;;13.43;4.55;;;;;;;21.88;79.04;101931.84;5049759;28;21459;-89
2023/08/22 10:20:56;;;;;;;20.08;5.50;;;;;;;21.97;76.55;101924.56;5027412;28;20045;-91
2023/08/22 10:24:00;;;;;;;17.33;5.22;;;;;;;22.02;81.14;101926.78;5024621;28;20025;-85
2023/08/22 10:26:28;;;;;;;13.80;5.07;;;;;;;21.98;76.30;101929.00;4970959;28;20552;-80
2023/08/22 10:29:16;;;;;;;18.10;5.20;;;;;;;21.99;78.59;101927.97;4968380;28;21322;-79
2023/08/22 10:32:10;;;;;;;18.43;6.47;;;;;;;21.96;80.29;101928.28;4960413;28;20089;-79
2023/08/22 10:34:39;;;;;;;22.88;6.53;;;;;;;21.90;80.92;101929.78;4952075;28;20462;-83
2023/08/22 10:37:13;;;;;;;13.07;4.35;;;;;;;21.86;75.03;101930.28;4970525;28;20043;-80
2023/08/22 10:39:39;;;;;;;15.10;4.30;;;;;;;21.90;76.21;101920.75;4972420;28;20575;-85
2023/08/22 10:42:18;;;;;;;13.90;4.30;;;;;;;21.95;75.22;101913.75;4974730;28;20054;-80
2023/08/22 10:44:52;;;;;;;12.35;4.20;;;;;;;22.01;76.43;101912.25;4972090;28;20122;-81
2023/08/22 10:47:28;;;;;;;12.95;3.95;;;;;;;22.12;77.23;101917.47;4970026;28;20534;-82
2023/08/22 10:49:56;;;;;;;14.73;4.38;;;;;;;22.18;77.53;101921.41;4952277;28;20517;-80
2023/08/22 10:52:28;;;;;;;13.25;4.22;;;;;;;22.24;77.61;101911.69;4954122;28;20034;-81
2023/08/22 10:54:56;;;;;;;11.57;3.40;;;;;;;22.26;76.82;101917.88;4968443;28;20515;-81
2023/08/22 10:57:21;;;;;;;14.18;3.72;;;;;;;22.29;75.26;101909.31;5013373;28;20408;-82
2023/08/22 10:59:59;;;;;;;14.00;3.30;;;;;;;22.33;75.66;101914.34;5041155;28;20032;-82
2023/08/22 11:02:32;;;;;;;14.45;4.15;;;;;;;22.36;71.44;101918.63;5040223;28;20045;-80
2023/08/22 11:05:00;;;;;;;10.05;3.50;;;;;;;22.41;71.27;101920.88;5039604;28;20041;-78
2023/08/22 11:07:26;;;;;;;11.15;3.03;;;;;;;22.50;67.41;101917.13;5044573;28;20033;-82